Parkview, Ohio
Current Conditions -  °F | °C
As of 11:51 PM on Tuesday 25 Nov 2014 (Local Time) from KCLE Reporting Station
Overcast Overcast  
Wind Chill: 26°   Ceiling: 2200
Heat Index: 31°   Visibility: 10mi
Dew Point: 22°   Wind: 5mph
Humidity: 69%   Direction: 330°NNW
Pressure: 30.21"   Gusts: NA
Location:  41.4423°N, 81.8531°W
Report Text: KCLE 260451Z 33004KT 10SM OVC022 M01/M06 A3021 RMK AO2 SLP239 T10061056 400391006
Loading
Personal Weather Stations






























Interactive Weather Map New forecast layout! Learn more

10-Day Weather Forecast

Advertisements
Track Severe Weather on mobile